Time;durP1;ratioP1;P1;durP2;ratioP2;P2;SDS_P1;SDS_P2;PMS_P1;PMS_P2;Temp;Humidity;BMP_temperature;BMP_pressure;BME280_temperature;BME280_humidity;BME280_pressure;Samples;Min_cycle;Max_cycle;Signal;HPM_P1;HPM_P2
2022/01/07 00:04:42;;;;;;;49.53;21.70;;;;;;;;;;10373690;28;20038;-60
2022/01/07 00:09:43;;;;;;;41.70;21.48;;;;;;;;;;10373741;28;20863;-58
2022/01/07 00:14:43;;;;;;;44.10;21.87;;;;;;;;;;10372605;28;20474;-58
2022/01/07 00:19:43;;;;;;;36.00;19.47;;;;;;;;;;10372623;28;20527;-60
2022/01/07 00:24:44;;;;;;;39.00;18.73;;;;;;;;;;10372821;28;20512;-59
2022/01/07 00:29:44;;;;;;;36.67;19.43;;;;;;;;;;10372775;28;20450;-59
2022/01/07 00:34:45;;;;;;;39.37;18.47;;;;;;;;;;10372553;28;20034;-59
2022/01/07 00:39:45;;;;;;;29.67;17.40;;;;;;;;;;10372283;28;20454;-60
2022/01/07 00:44:46;;;;;;;36.10;18.38;;;;;;;;;;10372072;28;20057;-59
2022/01/07 00:49:46;;;;;;;32.60;18.33;;;;;;;;;;10371495;28;20036;-59
2022/01/07 00:54:47;;;;;;;30.80;18.63;;;;;;;;;;10371763;28;20033;-58
2022/01/07 00:59:47;;;;;;;29.33;16.50;;;;;;;;;;10368012;28;20381;-58
2022/01/07 01:04:48;;;;;;;34.97;17.57;;;;;;;;;;10368188;28;20474;-58
2022/01/07 01:09:48;;;;;;;30.60;16.35;;;;;;;;;;10370755;28;20033;-58
2022/01/07 01:14:48;;;;;;;28.37;15.30;;;;;;;;;;10370523;28;20046;-55
2022/01/07 01:19:49;;;;;;;27.30;15.63;;;;;;;;;;10370783;28;20754;-59
2022/01/07 01:24:49;;;;;;;36.63;17.08;;;;;;;;;;10370112;28;20109;-59
2022/01/07 01:29:49;;;;;;;32.17;16.33;;;;;;;;;;10371003;28;20172;-59
2022/01/07 01:34:50;;;;;;;26.40;15.23;;;;;;;;;;10369802;28;20026;-58
2022/01/07 01:39:50;;;;;;;30.53;15.67;;;;;;;;;;10369169;28;20562;-58
2022/01/07 01:44:51;;;;;;;24.53;14.67;;;;;;;;;;10369779;28;20450;-58
2022/01/07 01:49:51;;;;;;;24.95;14.80;;;;;;;;;;10369676;28;20153;-58
2022/01/07 01:54:51;;;;;;;27.73;13.93;;;;;;;;;;10369167;28;20108;-58
2022/01/07 01:59:52;;;;;;;24.83;14.80;;;;;;;;;;10368930;28;20734;-59
2022/01/07 02:04:52;;;;;;;25.57;14.63;;;;;;;;;;10365728;28;20459;-59
2022/01/07 02:09:53;;;;;;;23.27;14.30;;;;;;;;;;10368961;28;20108;-58
2022/01/07 02:14:56;;;;;;;30.52;13.82;;;;;;;;;;10364701;28;20042;-58
2022/01/07 02:19:56;;;;;;;25.38;13.77;;;;;;;;;;10368767;28;20026;-57
2022/01/07 02:24:57;;;;;;;24.38;13.13;;;;;;;;;;10368542;28;20022;-57
2022/01/07 02:29:58;;;;;;;22.90;12.73;;;;;;;;;;10368542;28;20029;-58
2022/01/07 02:34:58;;;;;;;23.17;13.75;;;;;;;;;;10368212;28;20026;-58
2022/01/07 02:39:58;;;;;;;25.30;13.07;;;;;;;;;;10367803;28;20442;-58
2022/01/07 02:44:59;;;;;;;22.40;12.50;;;;;;;;;;10367763;28;20535;-58
2022/01/07 02:50:05;;;;;;;21.43;12.87;;;;;;;;;;10366638;28;20053;-58
2022/01/07 02:55:06;;;;;;;23.75;12.38;;;;;;;;;;10367824;28;20440;-58
2022/01/07 03:00:08;;;;;;;23.52;12.52;;;;;;;;;;10367253;28;20121;-58
2022/01/07 03:05:08;;;;;;;20.00;11.73;;;;;;;;;;10367055;28;20049;-59
2022/01/07 03:10:10;;;;;;;18.35;11.15;;;;;;;;;;10364562;28;20520;-55
2022/01/07 03:15:14;;;;;;;20.00;12.52;;;;;;;;;;10366914;28;20116;-59
2022/01/07 03:20:17;;;;;;;16.60;11.43;;;;;;;;;;10363819;28;20348;-58
2022/01/07 03:25:18;;;;;;;19.60;11.30;;;;;;;;;;10372028;28;20069;-59
2022/01/07 03:30:18;;;;;;;19.45;10.95;;;;;;;;;;10375289;28;20501;-59
2022/01/07 03:35:19;;;;;;;19.48;10.60;;;;;;;;;;10373930;28;20033;-59
2022/01/07 03:40:20;;;;;;;22.48;10.45;;;;;;;;;;10374627;28;20030;-59
2022/01/07 03:45:21;;;;;;;19.42;10.95;;;;;;;;;;10374005;28;20081;-59
2022/01/07 03:50:25;;;;;;;14.90;10.30;;;;;;;;;;10373809;28;20427;-59
2022/01/07 03:55:28;;;;;;;18.52;10.15;;;;;;;;;;10373573;28;20550;-59
2022/01/07 04:00:34;;;;;;;17.20;9.85;;;;;;;;;;10374471;28;20033;-59
2022/01/07 04:05:35;;;;;;;18.33;10.48;;;;;;;;;;10373079;28;20470;-59
2022/01/07 04:10:36;;;;;;;24.15;10.57;;;;;;;;;;10374217;28;20022;-58
2022/01/07 04:15:36;;;;;;;14.23;9.45;;;;;;;;;;10369717;28;20046;-58
2022/01/07 04:20:37;;;;;;;16.02;9.27;;;;;;;;;;10372561;28;20493;-59
2022/01/07 04:25:37;;;;;;;16.80;8.50;;;;;;;;;;10369398;28;20105;-59
2022/01/07 04:30:40;;;;;;;13.00;8.90;;;;;;;;;;10372790;28;20022;-59
2022/01/07 04:35:43;;;;;;;17.48;9.05;;;;;;;;;;10372208;28;20447;-59
2022/01/07 04:40:43;;;;;;;15.10;9.23;;;;;;;;;;10371850;28;20109;-58
2022/01/07 04:45:44;;;;;;;16.27;8.95;;;;;;;;;;10371655;28;20105;-58
2022/01/07 04:50:44;;;;;;;15.07;9.30;;;;;;;;;;10372400;28;20253;-58
2022/01/07 04:55:45;;;;;;;13.83;8.60;;;;;;;;;;10371814;28;20100;-57
2022/01/07 05:00:45;;;;;;;15.27;8.53;;;;;;;;;;10370864;28;20459;-58
2022/01/07 05:05:52;;;;;;;10.95;7.93;;;;;;;;;;10371261;28;20093;-59
2022/01/07 05:10:52;;;;;;;14.65;8.95;;;;;;;;;;10370802;28;20381;-57
2022/01/07 05:15:53;;;;;;;12.48;8.48;;;;;;;;;;10370364;28;20048;-58
2022/01/07 05:20:53;;;;;;;15.13;8.10;;;;;;;;;;10367021;28;20026;-57
2022/01/07 05:25:53;;;;;;;16.60;8.00;;;;;;;;;;10370108;28;20460;-58
2022/01/07 05:30:54;;;;;;;15.00;7.70;;;;;;;;;;10366861;28;20064;-59
2022/01/07 05:35:54;;;;;;;13.97;7.53;;;;;;;;;;10369797;28;20108;-58
2022/01/07 05:40:55;;;;;;;10.55;7.38;;;;;;;;;;10369319;28;20738;-58
2022/01/07 05:45:55;;;;;;;14.10;7.95;;;;;;;;;;10367732;28;20264;-59
2022/01/07 05:50:55;;;;;;;11.18;7.15;;;;;;;;;;10369528;28;20030;-59
2022/01/07 05:55:56;;;;;;;11.50;7.17;;;;;;;;;;10369655;28;20461;-59
2022/01/07 06:00:56;;;;;;;17.95;7.35;;;;;;;;;;10368683;28;20451;-58
2022/01/07 06:05:57;;;;;;;16.23;7.15;;;;;;;;;;10369673;28;20026;-58
2022/01/07 06:10:57;;;;;;;12.77;7.00;;;;;;;;;;10368565;28;20487;-58
2022/01/07 06:15:57;;;;;;;11.67;7.07;;;;;;;;;;10367256;28;20541;-58
2022/01/07 06:20:58;;;;;;;12.87;6.63;;;;;;;;;;10368276;28;20034;-58
2022/01/07 06:25:58;;;;;;;12.00;7.00;;;;;;;;;;10368405;28;20030;-55
2022/01/07 06:30:59;;;;;;;11.18;6.60;;;;;;;;;;10365018;28;20508;-59
2022/01/07 06:35:59;;;;;;;11.83;6.80;;;;;;;;;;10364782;28;20026;-58
2022/01/07 06:40:59;;;;;;;9.17;6.30;;;;;;;;;;10368239;28;20468;-58
2022/01/07 06:46:00;;;;;;;10.90;6.27;;;;;;;;;;10368358;28;20432;-59
2022/01/07 06:51:00;;;;;;;10.43;6.13;;;;;;;;;;10368452;28;20514;-58
2022/01/07 06:56:03;;;;;;;7.65;5.53;;;;;;;;;;10367641;28;20436;-58
2022/01/07 07:01:08;;;;;;;9.95;6.10;;;;;;;;;;10376212;28;20095;-58
2022/01/07 07:06:09;;;;;;;9.40;5.88;;;;;;;;;;10376312;28;20044;-58
2022/01/07 07:11:09;;;;;;;10.55;5.93;;;;;;;;;;10374483;28;20056;-58
2022/01/07 07:16:09;;;;;;;8.45;5.40;;;;;;;;;;10374676;28;20137;-58
2022/01/07 07:21:10;;;;;;;8.85;5.10;;;;;;;;;;10374624;28;20026;-58
2022/01/07 07:26:10;;;;;;;12.23;5.85;;;;;;;;;;10375872;28;20049;-59
2022/01/07 07:31:14;;;;;;;10.47;5.70;;;;;;;;;;10374030;28;20026;-59
2022/01/07 07:41:46;;;;;;;9.75;5.93;;;;;;;;;;10365416;28;20042;-59
2022/01/07 07:46:46;;;;;;;10.87;5.10;;;;;;;;;;10371787;28;20037;-59
2022/01/07 07:51:47;;;;;;;7.93;5.47;;;;;;;;;;10374014;28;20432;-59
2022/01/07 07:56:47;;;;;;;11.70;5.22;;;;;;;;;;10374383;28;20911;-59
2022/01/07 08:01:48;;;;;;;8.55;5.43;;;;;;;;;;10373973;28;20469;-59
2022/01/07 08:06:49;;;;;;;8.27;4.80;;;;;;;;;;10373505;28;20030;-58
2022/01/07 08:11:52;;;;;;;17.10;5.22;;;;;;;;;;10373200;28;20050;-58
2022/01/07 08:16:52;;;;;;;13.63;5.18;;;;;;;;;;10373190;28;20034;-58
2022/01/07 08:21:53;;;;;;;11.40;4.93;;;;;;;;;;10372839;28;20030;-57
2022/01/07 08:26:54;;;;;;;17.95;4.85;;;;;;;;;;10373722;28;20523;-54
2022/01/07 08:37:13;;;;;;;11.40;4.70;;;;;;;;;;10371662;28;20048;-53
2022/01/07 08:42:13;;;;;;;9.63;4.67;;;;;;;;;;10368276;28;20030;-56
2022/01/07 08:47:14;;;;;;;9.48;4.43;;;;;;;;;;10371289;28;20781;-56
2022/01/07 08:52:15;;;;;;;13.35;5.00;;;;;;;;;;10368508;28;20030;-57
2022/01/07 08:57:15;;;;;;;6.45;4.20;;;;;;;;;;10371319;28;20030;-56
2022/01/07 09:02:15;;;;;;;10.30;4.17;;;;;;;;;;10371360;28;20430;-52
2022/01/07 09:07:16;;;;;;;6.43;4.57;;;;;;;;;;10371034;28;20587;-57
2022/01/07 09:12:16;;;;;;;8.82;4.07;;;;;;;;;;10371194;28;20502;-55
2022/01/07 09:17:17;;;;;;;7.65;3.90;;;;;;;;;;10370307;28;20026;-57
2022/01/07 09:22:17;;;;;;;8.50;4.63;;;;;;;;;;10345350;28;20056;-56
2022/01/07 09:27:18;;;;;;;10.07;4.00;;;;;;;;;;10337375;28;20362;-55
2022/01/07 09:32:18;;;;;;;6.83;4.10;;;;;;;;;;10355948;28;20501;-57
2022/01/07 09:37:18;;;;;;;9.93;4.22;;;;;;;;;;10345284;28;20432;-57
2022/01/07 09:42:19;;;;;;;12.30;4.17;;;;;;;;;;10331963;28;20034;-56
2022/01/07 09:47:21;;;;;;;10.00;4.23;;;;;;;;;;10333675;28;20431;-53
2022/01/07 09:52:24;;;;;;;8.45;4.05;;;;;;;;;;10326970;28;20107;-58
2022/01/07 09:57:24;;;;;;;7.25;4.10;;;;;;;;;;10329733;28;20033;-61
2022/01/07 10:02:25;;;;;;;9.57;4.37;;;;;;;;;;10327511;28;20234;-58
2022/01/07 10:07:26;;;;;;;8.57;3.97;;;;;;;;;;10331706;28;20111;-57
2022/01/07 10:12:28;;;;;;;6.72;3.72;;;;;;;;;;10331201;28;20593;-58
2022/01/07 10:17:28;;;;;;;8.80;4.28;;;;;;;;;;10331420;28;20064;-57
2022/01/07 10:22:28;;;;;;;8.00;4.07;;;;;;;;;;10330701;28;20533;-58
2022/01/07 10:27:37;;;;;;;6.40;3.47;;;;;;;;;;10330863;28;20612;-56
2022/01/07 10:32:37;;;;;;;6.10;3.72;;;;;;;;;;10330644;28;20363;-57
2022/01/07 10:37:59;;;;;;;6.28;3.88;;;;;;;;;;10330716;28;20300;-61
2022/01/07 10:43:22;;;;;;;10.90;3.60;;;;;;;;;;10330491;28;20033;-57
2022/01/07 10:48:35;;;;;;;6.05;3.90;;;;;;;;;;10330305;28;20074;-53
2022/01/07 10:53:37;;;;;;;5.30;3.60;;;;;;;;;;10328946;28;20464;-58
2022/01/07 10:58:47;;;;;;;6.03;3.42;;;;;;;;;;10330588;28;20221;-57
2022/01/07 11:03:49;;;;;;;5.40;3.28;;;;;;;;;;10327155;28;20280;-54
2022/01/07 11:08:51;;;;;;;5.38;3.63;;;;;;;;;;10327327;28;20089;-57
2022/01/07 11:13:52;;;;;;;6.40;3.42;;;;;;;;;;10328661;28;20053;-58
2022/01/07 11:18:52;;;;;;;5.45;3.35;;;;;;;;;;10328960;28;20049;-59
2022/01/07 11:23:53;;;;;;;6.40;3.30;;;;;;;;;;10328312;28;20473;-55
2022/01/07 11:28:56;;;;;;;3.72;2.92;;;;;;;;;;10329733;28;20155;-54
2022/01/07 11:34:19;;;;;;;5.68;3.25;;;;;;;;;;10329353;28;20038;-57
2022/01/07 11:39:20;;;;;;;6.03;3.28;;;;;;;;;;10328624;28;20029;-60
2022/01/07 11:44:26;;;;;;;4.45;2.83;;;;;;;;;;10335527;28;20030;-58
2022/01/07 11:49:34;;;;;;;5.93;3.15;;;;;;;;;;10371371;28;20116;-59
2022/01/07 11:54:35;;;;;;;7.50;3.05;;;;;;;;;;10359216;28;20022;-58
2022/01/07 11:59:47;;;;;;;5.27;3.27;;;;;;;;;;10334874;28;20500;-54
2022/01/07 12:04:47;;;;;;;4.95;3.08;;;;;;;;;;10344279;28;20895;-50
2022/01/07 12:09:49;;;;;;;7.17;3.10;;;;;;;;;;10370812;28;20052;-58
2022/01/07 12:14:54;;;;;;;4.80;2.70;;;;;;;;;;10371578;28;20041;-55
2022/01/07 12:20:35;;;;;;;4.65;2.72;;;;;;;;;;10373061;28;20065;-57
2022/01/07 12:25:36;;;;;;;10.38;2.72;;;;;;;;;;10371598;28;20025;-58
2022/01/07 12:30:39;;;;;;;5.00;2.95;;;;;;;;;;10372619;28;20030;-58
2022/01/07 12:35:41;;;;;;;6.45;2.67;;;;;;;;;;10371021;28;20028;-54
2022/01/07 12:40:42;;;;;;;4.38;2.75;;;;;;;;;;10371875;28;20044;-58
2022/01/07 12:45:42;;;;;;;2.95;2.33;;;;;;;;;;10369940;28;20037;-59
2022/01/07 12:50:43;;;;;;;4.85;2.63;;;;;;;;;;10371642;28;20061;-59
2022/01/07 12:55:44;;;;;;;5.70;3.00;;;;;;;;;;10367779;28;20509;-58
2022/01/07 13:00:46;;;;;;;3.23;2.43;;;;;;;;;;10367881;28;20109;-58
2022/01/07 13:05:48;;;;;;;4.13;2.72;;;;;;;;;;10369952;28;20427;-57
2022/01/07 13:10:49;;;;;;;3.60;2.70;;;;;;;;;;10370911;28;20030;-58
2022/01/07 13:15:53;;;;;;;4.30;2.50;;;;;;;;;;10370173;28;20045;-58
2022/01/07 13:21:14;;;;;;;5.05;2.55;;;;;;;;;;10370000;28;20022;-58
2022/01/07 13:26:15;;;;;;;4.45;2.47;;;;;;;;;;10368866;28;20033;-58
2022/01/07 13:31:27;;;;;;;6.95;2.63;;;;;;;;;;10369758;28;20049;-57
2022/01/07 13:36:38;;;;;;;4.05;2.63;;;;;;;;;;10367878;28;20052;-58
2022/01/07 13:41:55;;;;;;;4.32;3.00;;;;;;;;;;10368598;28;20036;-56
2022/01/07 13:47:00;;;;;;;5.22;2.85;;;;;;;;;;10368769;28;20469;-54
2022/01/07 13:52:04;;;;;;;5.25;2.30;;;;;;;;;;10348837;28;20081;-55
2022/01/07 13:57:11;;;;;;;5.78;2.85;;;;;;;;;;10330759;28;20403;-56
2022/01/07 14:02:18;;;;;;;7.13;3.17;;;;;;;;;;10328647;28;20034;-59
2022/01/07 14:07:25;;;;;;;5.22;2.47;;;;;;;;;;10330702;28;20117;-54
2022/01/07 14:12:25;;;;;;;4.85;2.50;;;;;;;;;;10329255;28;20065;-52
2022/01/07 14:17:26;;;;;;;11.87;3.03;;;;;;;;;;10354542;28;20050;-60
2022/01/07 14:22:26;;;;;;;4.90;2.60;;;;;;;;;;10331123;28;20217;-55
2022/01/07 14:27:37;;;;;;;5.70;2.97;;;;;;;;;;10324399;28;20121;-58
2022/01/07 14:32:38;;;;;;;4.72;2.28;;;;;;;;;;10328775;28;20463;-59
2022/01/07 14:37:39;;;;;;;5.60;2.40;;;;;;;;;;10331438;28;20058;-58
2022/01/07 14:42:40;;;;;;;4.72;2.60;;;;;;;;;;10331004;28;20030;-56
2022/01/07 14:47:41;;;;;;;6.47;2.20;;;;;;;;;;10330851;28;20501;-55
2022/01/07 14:52:41;;;;;;;3.05;2.00;;;;;;;;;;10330174;28;20026;-55
2022/01/07 14:57:42;;;;;;;4.93;2.15;;;;;;;;;;10330683;28;20304;-58
2022/01/07 15:02:42;;;;;;;5.63;2.10;;;;;;;;;;10329783;28;20030;-57
2022/01/07 15:07:43;;;;;;;3.73;2.10;;;;;;;;;;10327398;28;20030;-54
2022/01/07 15:12:44;;;;;;;6.47;2.10;;;;;;;;;;10327162;28;20124;-52
2022/01/07 15:17:44;;;;;;;4.13;2.00;;;;;;;;;;10330859;28;20439;-51
2022/01/07 15:22:45;;;;;;;6.47;2.30;;;;;;;;;;10337372;28;20551;-51
2022/01/07 15:27:45;;;;;;;4.22;2.53;;;;;;;;;;10337346;28;20538;-50
2022/01/07 15:32:45;;;;;;;4.40;2.10;;;;;;;;;;10337471;28;20437;-57
2022/01/07 15:37:47;;;;;;;4.13;1.97;;;;;;;;;;10336672;28;20036;-55
2022/01/07 15:42:47;;;;;;;4.00;1.98;;;;;;;;;;10336201;28;20459;-53
2022/01/07 15:47:47;;;;;;;8.73;1.97;;;;;;;;;;10336098;28;20398;-56
2022/01/07 15:52:48;;;;;;;4.37;2.17;;;;;;;;;;10335968;28;20444;-59
2022/01/07 15:57:48;;;;;;;4.47;1.93;;;;;;;;;;10336732;28;20185;-58
2022/01/07 16:02:49;;;;;;;4.95;2.53;;;;;;;;;;10335906;28;20167;-54
2022/01/07 16:07:50;;;;;;;7.68;2.10;;;;;;;;;;10335733;28;20050;-54
2022/01/07 16:12:51;;;;;;;3.10;2.03;;;;;;;;;;10332460;28;20072;-55
2022/01/07 16:17:52;;;;;;;4.47;1.65;;;;;;;;;;10332724;28;20796;-60
2022/01/07 16:22:52;;;;;;;3.88;2.03;;;;;;;;;;10335325;28;20293;-53
2022/01/07 16:27:53;;;;;;;2.88;1.98;;;;;;;;;;10335403;28;20083;-62
2022/01/07 16:32:53;;;;;;;4.20;1.90;;;;;;;;;;10334581;28;20050;-58
2022/01/07 16:37:54;;;;;;;4.03;1.83;;;;;;;;;;10334671;28;20021;-62
2022/01/07 16:42:54;;;;;;;2.65;1.98;;;;;;;;;;10332734;28;20030;-62
2022/01/07 16:47:55;;;;;;;2.47;1.93;;;;;;;;;;10334928;28;20463;-63
2022/01/07 16:52:56;;;;;;;4.30;2.17;;;;;;;;;;10333670;28;20451;-61
2022/01/07 16:57:56;;;;;;;6.18;2.22;;;;;;;;;;10333842;28;20057;-52
2022/01/07 17:02:57;;;;;;;3.47;2.38;;;;;;;;;;10332508;28;20104;-59
2022/01/07 17:07:57;;;;;;;4.97;2.23;;;;;;;;;;10334165;28;20235;-59
2022/01/07 17:12:57;;;;;;;6.30;2.27;;;;;;;;;;10333257;28;20253;-62
2022/01/07 17:17:58;;;;;;;5.07;2.07;;;;;;;;;;10331423;28;20092;-61
2022/01/07 17:23:00;;;;;;;5.43;2.43;;;;;;;;;;10334097;28;20105;-59
2022/01/07 17:28:01;;;;;;;4.22;2.00;;;;;;;;;;10330304;28;20586;-58
2022/01/07 17:33:01;;;;;;;6.03;2.77;;;;;;;;;;10334370;28;20307;-61
2022/01/07 17:38:02;;;;;;;4.83;1.97;;;;;;;;;;10332928;28;20436;-62
2022/01/07 17:43:02;;;;;;;3.75;1.60;;;;;;;;;;10330882;28;20553;-58
2022/01/07 17:48:03;;;;;;;2.80;1.98;;;;;;;;;;10353375;28;20104;-61
2022/01/07 17:53:04;;;;;;;6.50;2.05;;;;;;;;;;10366464;28;20512;-61
2022/01/07 17:58:04;;;;;;;8.53;2.10;;;;;;;;;;10368704;28;20189;-61
2022/01/07 18:03:05;;;;;;;8.02;2.20;;;;;;;;;;10369438;28;20463;-61
2022/01/07 18:08:05;;;;;;;6.32;2.40;;;;;;;;;;10369035;28;20088;-61
2022/01/07 18:13:06;;;;;;;6.03;2.15;;;;;;;;;;10368123;28;20485;-61
2022/01/07 18:18:06;;;;;;;7.75;2.13;;;;;;;;;;10367940;28;20030;-62
2022/01/07 18:23:11;;;;;;;8.20;3.13;;;;;;;;;;10366326;28;20040;-60
2022/01/07 18:28:13;;;;;;;15.25;2.40;;;;;;;;;;10361308;28;20398;-61
2022/01/07 18:33:13;;;;;;;4.13;2.20;;;;;;;;;;10368244;28;20026;-62
2022/01/07 18:38:14;;;;;;;16.00;2.70;;;;;;;;;;10367094;28;20022;-61
2022/01/07 18:43:15;;;;;;;25.20;4.63;;;;;;;;;;10367412;28;20044;-60
2022/01/07 18:48:16;;;;;;;14.13;4.80;;;;;;;;;;10367027;28;20484;-59
2022/01/07 18:53:16;;;;;;;10.88;5.38;;;;;;;;;;10367439;28;20029;-60
2022/01/07 18:58:17;;;;;;;13.07;5.03;;;;;;;;;;10368116;28;20084;-59
2022/01/07 19:03:21;;;;;;;12.50;6.05;;;;;;;;;;10367407;28;20026;-59
2022/01/07 19:08:22;;;;;;;12.20;6.20;;;;;;;;;;10367790;28;20022;-60
2022/01/07 19:13:22;;;;;;;13.67;6.63;;;;;;;;;;10367126;28;20105;-60
2022/01/07 19:18:23;;;;;;;11.75;6.22;;;;;;;;;;10366253;28;20117;-59
2022/01/07 19:23:23;;;;;;;15.35;6.72;;;;;;;;;;10367452;28;20512;-59
2022/01/07 19:28:24;;;;;;;11.68;6.35;;;;;;;;;;10363839;28;20593;-60
2022/01/07 19:33:24;;;;;;;16.98;7.32;;;;;;;;;;10366734;28;20029;-58
2022/01/07 19:38:24;;;;;;;19.77;7.83;;;;;;;;;;10363897;28;20025;-58
2022/01/07 19:43:25;;;;;;;19.92;7.47;;;;;;;;;;10366399;28;20621;-59
2022/01/07 19:48:26;;;;;;;24.00;8.23;;;;;;;;;;10366821;28;20458;-58
2022/01/07 19:53:26;;;;;;;20.77;8.52;;;;;;;;;;10366672;28;20514;-58
2022/01/07 19:58:27;;;;;;;23.05;8.02;;;;;;;;;;10365677;28;20405;-59
2022/01/07 20:03:30;;;;;;;18.95;8.95;;;;;;;;;;10366784;28;20056;-58
2022/01/07 20:08:30;;;;;;;19.60;8.60;;;;;;;;;;10372449;28;20054;-58
2022/01/07 20:13:30;;;;;;;25.23;8.57;;;;;;;;;;10372454;28;20445;-59
2022/01/07 20:18:31;;;;;;;19.83;8.30;;;;;;;;;;10372607;28;20432;-57
2022/01/07 20:23:31;;;;;;;18.63;9.05;;;;;;;;;;10372847;28;20034;-57
2022/01/07 20:28:32;;;;;;;18.87;8.73;;;;;;;;;;10373103;28;20053;-60
2022/01/07 20:33:32;;;;;;;19.33;8.70;;;;;;;;;;10369991;28;20467;-58
2022/01/07 20:38:32;;;;;;;19.27;9.33;;;;;;;;;;10369952;28;20041;-58
2022/01/07 20:43:33;;;;;;;14.90;8.40;;;;;;;;;;10372831;28;20033;-58
2022/01/07 20:48:34;;;;;;;19.83;9.18;;;;;;;;;;10372377;28;20439;-58
2022/01/07 20:53:37;;;;;;;15.05;8.95;;;;;;;;;;10372375;28;20022;-58
2022/01/07 20:58:38;;;;;;;19.92;9.18;;;;;;;;;;10372095;28;20022;-58
2022/01/07 21:03:42;;;;;;;16.48;8.52;;;;;;;;;;10371133;28;20030;-59
2022/01/07 21:08:43;;;;;;;17.25;9.48;;;;;;;;;;10371439;28;20105;-58
2022/01/07 21:13:44;;;;;;;19.33;8.98;;;;;;;;;;10370886;28;20485;-58
2022/01/07 21:18:44;;;;;;;17.30;8.30;;;;;;;;;;10370894;28;20071;-58
2022/01/07 21:23:46;;;;;;;16.13;8.35;;;;;;;;;;10370500;28;20111;-58
2022/01/07 21:28:46;;;;;;;13.30;8.73;;;;;;;;;;10371749;28;20041;-59
2022/01/07 21:33:47;;;;;;;15.00;8.80;;;;;;;;;;10370212;28;20410;-59
2022/01/07 21:38:48;;;;;;;18.30;8.68;;;;;;;;;;10367286;28;20456;-59
2022/01/07 21:43:48;;;;;;;15.35;8.75;;;;;;;;;;10367284;28;20040;-58
2022/01/07 21:48:48;;;;;;;16.77;8.63;;;;;;;;;;10370000;28;20409;-59
2022/01/07 21:53:49;;;;;;;19.00;8.60;;;;;;;;;;10370262;28;20021;-57
2022/01/07 21:58:49;;;;;;;12.33;8.10;;;;;;;;;;10369775;28;20527;-59
2022/01/07 22:03:49;;;;;;;18.20;8.83;;;;;;;;;;10369335;28;20041;-58
2022/01/07 22:08:50;;;;;;;14.87;8.47;;;;;;;;;;10369888;28;20597;-58
2022/01/07 22:13:56;;;;;;;16.90;8.47;;;;;;;;;;10368465;28;20475;-57
2022/01/07 22:18:56;;;;;;;14.73;8.13;;;;;;;;;;10369077;28;20037;-58
2022/01/07 22:23:58;;;;;;;15.38;8.27;;;;;;;;;;10368190;28;20408;-57
2022/01/07 22:28:58;;;;;;;14.43;8.40;;;;;;;;;;10368058;28;20033;-57
2022/01/07 22:33:59;;;;;;;15.50;8.30;;;;;;;;;;10368605;28;20018;-57
2022/01/07 22:38:59;;;;;;;12.13;7.83;;;;;;;;;;10368538;28;21021;-58
2022/01/07 22:44:00;;;;;;;15.57;7.82;;;;;;;;;;10364125;28;20386;-57
2022/01/07 22:49:00;;;;;;;14.40;8.47;;;;;;;;;;10364944;28;20033;-59
2022/01/07 22:54:01;;;;;;;17.83;10.02;;;;;;;;;;10367855;28;20510;-57
2022/01/07 22:59:01;;;;;;;15.33;9.57;;;;;;;;;;10368199;28;20053;-60
2022/01/07 23:04:02;;;;;;;16.25;9.50;;;;;;;;;;10367377;28;21028;-57
2022/01/07 23:09:02;;;;;;;18.88;9.88;;;;;;;;;;10368123;28;20110;-57
2022/01/07 23:14:02;;;;;;;21.08;10.25;;;;;;;;;;10367152;28;20084;-59
2022/01/07 23:19:03;;;;;;;17.73;9.60;;;;;;;;;;10367384;28;20062;-59
2022/01/07 23:24:05;;;;;;;17.10;9.30;;;;;;;;;;10367363;28;20483;-60
2022/01/07 23:29:05;;;;;;;14.57;9.50;;;;;;;;;;10367666;28;20543;-58
2022/01/07 23:34:07;;;;;;;22.52;10.32;;;;;;;;;;10367002;28;20056;-58
2022/01/07 23:39:07;;;;;;;26.38;9.90;;;;;;;;;;10367361;28;20032;-60
2022/01/07 23:44:08;;;;;;;28.85;9.90;;;;;;;;;;10373772;28;20390;-58
2022/01/07 23:49:08;;;;;;;25.55;10.23;;;;;;;;;;10370994;28;20269;-60
2022/01/07 23:54:08;;;;;;;15.37;9.13;;;;;;;;;;10373573;28;20021;-58
2022/01/07 23:59:09;;;;;;;22.80;9.47;;;;;;;;;;10370356;28;20858;-60
